Time;durP1;ratioP1;P1;durP2;ratioP2;P2;SDS_P1;SDS_P2;PMS_P1;PMS_P2;Temp;Humidity;BMP_temperature;BMP_pressure;BME280_temperature;BME280_humidity;BME280_pressure;Samples;Min_cycle;Max_cycle;Signal;HPM_P1;HPM_P2
2021/11/05 00:01:04;;;;;;;8.05;6.75;;;;;;;5.68;100.00;96242.66;5000139;28;20068;-58
2021/11/05 00:03:34;;;;;;;7.75;6.70;;;;;;;5.66;100.00;96241.91;5003371;28;20080;-54
2021/11/05 00:06:02;;;;;;;6.90;6.20;;;;;;;5.63;100.00;96245.59;4998571;28;20085;-53
2021/11/05 00:08:31;;;;;;;7.35;6.55;;;;;;;5.61;100.00;96244.03;4992792;28;20773;-55
2021/11/05 00:10:59;;;;;;;7.15;6.45;;;;;;;5.77;100.00;96241.91;5004129;28;20065;-54
2021/11/05 00:13:28;;;;;;;7.22;6.35;;;;;;;5.61;100.00;96244.91;5002064;28;20073;-53
2021/11/05 00:15:56;;;;;;;6.97;6.35;;;;;;;5.96;100.00;96240.50;5003925;28;20077;-55
2021/11/05 00:18:24;;;;;;;8.23;6.47;;;;;;;5.92;100.00;96248.59;5006656;28;20475;-58
2021/11/05 00:20:54;;;;;;;7.30;6.55;;;;;;;5.82;100.00;96245.00;5002152;28;20073;-59
2021/11/05 00:23:23;;;;;;;7.00;6.30;;;;;;;5.60;100.00;96248.44;5001936;28;20069;-57
2021/11/05 00:25:51;;;;;;;9.13;6.78;;;;;;;5.85;100.00;96241.28;5003601;28;20548;-56
2021/11/05 00:28:20;;;;;;;7.03;6.32;;;;;;;5.97;100.00;96243.00;5004330;28;20057;-52
2021/11/05 00:30:48;;;;;;;7.15;6.38;;;;;;;5.75;100.00;96248.19;5003253;28;20452;-56
2021/11/05 00:33:17;;;;;;;8.15;6.40;;;;;;;5.78;100.00;96248.81;5003500;28;20106;-53
2021/11/05 00:35:45;;;;;;;7.40;6.60;;;;;;;5.75;100.00;96262.13;5000380;28;20102;-55
2021/11/05 00:38:15;;;;;;;7.32;6.63;;;;;;;5.54;100.00;96259.41;5001778;28;20069;-57
2021/11/05 00:40:44;;;;;;;7.75;6.50;;;;;;;5.89;100.00;96251.41;5001916;28;20064;-56
2021/11/05 00:43:12;;;;;;;7.80;6.47;;;;;;;5.97;100.00;96253.47;5018371;28;20181;-56
2021/11/05 00:45:41;;;;;;;7.50;6.45;;;;;;;5.99;100.00;96263.78;5000920;28;20082;-55
2021/11/05 00:48:09;;;;;;;8.05;6.95;;;;;;;5.59;100.00;96262.50;5004262;28;20089;-51
2021/11/05 00:50:38;;;;;;;7.25;6.55;;;;;;;5.74;100.00;96259.63;4993874;28;20455;-55
2021/11/05 00:53:06;;;;;;;7.35;6.40;;;;;;;5.72;100.00;96265.81;4999543;28;20074;-56
2021/11/05 00:55:36;;;;;;;7.57;6.78;;;;;;;5.67;100.00;96265.31;5002417;28;20073;-57
2021/11/05 00:58:04;;;;;;;7.65;6.85;;;;;;;5.77;100.00;96262.84;5004877;28;20080;-56
2021/11/05 01:00:33;;;;;;;8.00;6.60;;;;;;;5.54;100.00;96262.03;5002946;28;20097;-56
2021/11/05 01:03:02;;;;;;;9.73;6.82;;;;;;;5.47;100.00;96264.28;5004418;28;21236;-53
2021/11/05 01:05:32;;;;;;;9.15;7.10;;;;;;;5.46;100.00;96259.16;5007782;28;20073;-54
2021/11/05 01:08:01;;;;;;;;;;;;;;;5.34;100.00;96260.94;5006501;28;20069;-55
2021/11/05 01:10:29;;;;;;;6.88;6.18;;;;;;;5.43;100.00;96260.22;5007919;28;19960;-56
2021/11/05 01:12:59;;;;;;;9.85;6.63;;;;;;;5.42;100.00;96268.19;5007203;28;20062;-55
2021/11/05 01:15:28;;;;;;;6.97;6.00;;;;;;;5.29;100.00;96264.84;5008042;28;20077;-56
2021/11/05 01:17:56;;;;;;;6.82;6.13;;;;;;;5.37;100.00;96270.34;5007349;28;20062;-58
2021/11/05 01:20:25;;;;;;;6.85;6.15;;;;;;;5.18;100.00;96270.88;4999332;28;20073;-53
2021/11/05 01:22:53;;;;;;;8.25;6.25;;;;;;;5.38;100.00;96267.59;5003367;28;20085;-50
2021/11/05 01:25:22;;;;;;;6.95;6.25;;;;;;;5.32;100.00;96264.59;5005020;28;20073;-56
2021/11/05 01:27:51;;;;;;;7.50;6.70;;;;;;;5.41;100.00;96267.34;5001999;28;20464;-56
2021/11/05 01:30:21;;;;;;;7.63;6.93;;;;;;;5.54;100.00;96267.25;5002374;28;20078;-54
2021/11/05 01:32:49;;;;;;;7.72;6.93;;;;;;;5.32;100.00;96267.22;5007393;28;20073;-53
2021/11/05 01:35:18;;;;;;;9.07;6.82;;;;;;;5.51;100.00;96264.88;5006928;28;20066;-53
2021/11/05 01:37:47;;;;;;;8.10;7.30;;;;;;;5.48;100.00;96271.16;5003724;28;20493;-56
2021/11/05 01:40:18;;;;;;;8.55;7.60;;;;;;;5.77;100.00;96272.47;5006532;28;20543;-50
2021/11/05 01:42:46;;;;;;;7.55;6.85;;;;;;;5.62;100.00;96269.28;5001653;28;20076;-55
2021/11/05 01:45:15;;;;;;;7.95;7.15;;;;;;;5.72;100.00;96273.66;5006154;28;20078;-58
2021/11/05 01:47:45;;;;;;;8.50;6.20;;;;;;;5.40;100.00;96272.69;5003285;28;20066;-56
2021/11/05 01:50:14;;;;;;;7.40;6.70;;;;;;;5.53;100.00;96272.59;5003909;28;20070;-57
2021/11/05 01:52:43;;;;;;;8.57;7.20;;;;;;;5.38;100.00;96274.59;5004332;28;20066;-55
2021/11/05 01:55:13;;;;;;;8.50;6.82;;;;;;;5.13;100.00;96280.88;5006135;28;20079;-55
2021/11/05 01:57:42;;;;;;;8.75;6.75;;;;;;;5.02;100.00;96279.03;5004768;28;20081;-54
2021/11/05 02:00:13;;;;;;;7.45;6.65;;;;;;;5.22;100.00;96282.78;5006719;28;20082;-56
2021/11/05 02:02:41;;;;;;;7.30;6.60;;;;;;;5.11;100.00;96283.59;5003616;28;20078;-54
2021/11/05 02:05:13;;;;;;;7.78;6.95;;;;;;;5.22;100.00;96283.59;5005567;28;20089;-54
2021/11/05 02:07:45;;;;;;;7.68;6.35;;;;;;;5.10;100.00;96281.94;5005144;28;20073;-59
2021/11/05 02:10:14;;;;;;;7.38;6.57;;;;;;;5.14;100.00;96282.53;5000757;28;20062;-53
2021/11/05 02:12:42;;;;;;;7.53;6.53;;;;;;;5.18;100.00;96282.16;5000160;28;20093;-56
2021/11/05 02:15:13;;;;;;;7.28;6.57;;;;;;;5.07;100.00;96283.94;5000831;28;20081;-56
2021/11/05 02:17:43;;;;;;;6.75;6.15;;;;;;;5.06;100.00;96285.72;4984019;28;20047;-54
2021/11/05 02:20:15;;;;;;;6.93;6.23;;;;;;;5.07;100.00;96284.75;4989189;28;20077;-55
2021/11/05 02:22:45;;;;;;;7.07;6.38;;;;;;;4.95;100.00;96283.88;4992809;28;20469;-57
2021/11/05 02:25:14;;;;;;;7.60;6.85;;;;;;;4.84;100.00;96289.09;5000937;28;20070;-55
2021/11/05 02:27:43;;;;;;;9.90;6.60;;;;;;;4.83;100.00;96295.25;4988318;28;20085;-53
2021/11/05 02:30:12;;;;;;;7.88;7.05;;;;;;;4.76;100.00;96291.44;5005879;28;20077;-58
2021/11/05 02:32:42;;;;;;;7.57;6.77;;;;;;;4.83;100.00;96294.44;4998844;28;20070;-55
2021/11/05 02:35:13;;;;;;;8.40;6.70;;;;;;;4.78;100.00;96292.13;5006183;28;20539;-57
2021/11/05 02:37:42;;;;;;;7.28;6.50;;;;;;;4.53;100.00;96293.94;5003968;28;20716;-55
2021/11/05 02:40:13;;;;;;;7.43;6.72;;;;;;;4.62;100.00;96295.06;5005430;28;20062;-55
2021/11/05 02:42:42;;;;;;;7.60;6.80;;;;;;;4.43;100.00;96298.16;5001659;28;20082;-55
2021/11/05 02:45:11;;;;;;;7.78;6.65;;;;;;;4.53;100.00;96296.56;5008426;28;20530;-54
2021/11/05 02:47:41;;;;;;;7.72;7.03;;;;;;;4.56;100.00;96305.94;5003654;28;20062;-55
2021/11/05 02:50:12;;;;;;;8.75;7.30;;;;;;;4.57;100.00;96302.38;5003544;28;20065;-56
2021/11/05 02:52:41;;;;;;;8.60;7.55;;;;;;;4.84;100.00;96299.53;5002623;28;20744;-52
2021/11/05 02:55:13;;;;;;;8.55;7.60;;;;;;;4.93;100.00;96303.25;4992982;28;20088;-49
2021/11/05 02:57:42;;;;;;;9.23;8.18;;;;;;;5.03;100.00;96303.41;4985771;28;20504;-56
2021/11/05 03:00:11;;;;;;;8.40;7.53;;;;;;;4.92;100.00;96309.41;4985833;28;20092;-55
2021/11/05 03:02:40;;;;;;;9.40;7.50;;;;;;;5.14;100.00;96316.50;4997428;28;20076;-55
2021/11/05 03:05:11;;;;;;;9.80;7.50;;;;;;;5.16;100.00;96314.59;4998079;28;20069;-55
2021/11/05 03:07:40;;;;;;;9.80;7.35;;;;;;;5.13;100.00;96313.06;4993707;28;20750;-57
2021/11/05 03:10:09;;;;;;;8.38;7.53;;;;;;;4.89;100.00;96314.88;4982732;28;20058;-55
2021/11/05 03:12:40;;;;;;;8.15;7.18;;;;;;;4.86;100.00;96320.34;4981856;28;20513;-55
2021/11/05 03:15:09;;;;;;;9.05;7.65;;;;;;;4.77;100.00;96332.28;5003626;28;20113;-53
2021/11/05 03:17:38;;;;;;;9.85;7.93;;;;;;;5.02;100.00;96325.25;4985740;28;20073;-55
2021/11/05 03:20:08;;;;;;;8.60;7.70;;;;;;;4.89;100.00;96331.41;4984036;28;20069;-56
2021/11/05 03:22:37;;;;;;;9.45;8.48;;;;;;;5.00;100.00;96334.03;4983734;28;20108;-55
2021/11/05 03:25:07;;;;;;;9.27;8.00;;;;;;;4.87;100.00;96332.44;4983417;28;20077;-54
2021/11/05 03:27:35;;;;;;;10.00;8.80;;;;;;;5.18;100.00;96331.84;4983112;28;20089;-52
2021/11/05 03:30:08;;;;;;;8.95;7.50;;;;;;;5.06;100.00;96334.53;5004203;28;20264;-54
2021/11/05 03:32:37;;;;;;;9.57;8.38;;;;;;;5.15;100.00;96331.22;4997957;28;20081;-57
2021/11/05 03:35:12;;;;;;;8.65;7.75;;;;;;;5.17;100.00;96335.41;5000157;28;20050;-57
2021/11/05 03:37:41;;;;;;;10.60;8.50;;;;;;;5.23;100.00;96337.56;5000028;28;20068;-51
2021/11/05 03:40:13;;;;;;;10.77;8.32;;;;;;;5.15;100.00;96346.91;5005420;28;20465;-57
2021/11/05 03:42:41;;;;;;;9.13;8.13;;;;;;;5.56;100.00;96348.22;5005376;28;20555;-56
2021/11/05 03:45:11;;;;;;;10.30;7.88;;;;;;;5.65;100.00;96350.13;5002967;28;20535;-58
2021/11/05 03:47:40;;;;;;;9.77;8.27;;;;;;;5.49;100.00;96355.69;4984680;28;20073;-55
2021/11/05 03:50:09;;;;;;;8.90;7.63;;;;;;;5.41;100.00;96353.66;4998693;28;20066;-58
2021/11/05 03:52:38;;;;;;;10.00;7.88;;;;;;;5.42;100.00;96363.16;4984642;28;20074;-57
2021/11/05 03:55:08;;;;;;;9.55;8.02;;;;;;;5.40;100.00;96364.22;4980307;28;20078;-57
2021/11/05 03:57:36;;;;;;;9.32;8.32;;;;;;;5.32;100.00;96371.81;4980381;28;20077;-53
2021/11/05 04:00:06;;;;;;;10.07;8.70;;;;;;;5.27;100.00;96379.16;4981278;28;20547;-58
2021/11/05 04:02:37;;;;;;;10.63;8.40;;;;;;;5.47;100.00;96383.72;4997715;28;20142;-55
2021/11/05 04:05:11;;;;;;;9.45;8.18;;;;;;;5.42;100.00;96386.69;5003134;28;20057;-56
2021/11/05 04:07:39;;;;;;;8.82;7.93;;;;;;;5.59;100.00;96382.81;5002670;28;20038;-51
2021/11/05 04:10:08;;;;;;;8.90;7.68;;;;;;;5.52;100.00;96386.00;4993295;28;20481;-52
2021/11/05 04:12:37;;;;;;;8.40;7.50;;;;;;;5.71;100.00;96386.28;5000513;28;20082;-53
2021/11/05 04:15:07;;;;;;;8.82;7.93;;;;;;;5.51;100.00;96394.81;5003746;28;20092;-56
2021/11/05 04:17:38;;;;;;;8.73;7.82;;;;;;;5.71;100.00;96394.97;4999995;28;20069;-52
2021/11/05 04:20:07;;;;;;;11.77;7.80;;;;;;;5.76;100.00;96402.47;5000370;28;20504;-54
2021/11/05 04:22:36;;;;;;;10.65;8.27;;;;;;;5.83;100.00;96405.44;4998445;28;20946;-58
2021/11/05 04:25:05;;;;;;;9.98;8.20;;;;;;;5.81;100.00;96409.94;5001222;28;20065;-54
2021/11/05 04:27:34;;;;;;;10.00;7.78;;;;;;;5.78;100.00;96408.44;5005146;28;20077;-57
2021/11/05 04:30:03;;;;;;;9.93;8.27;;;;;;;5.87;100.00;96412.94;4996009;28;20182;-53
2021/11/05 04:32:32;;;;;;;10.38;7.50;;;;;;;5.90;100.00;96415.31;5000372;28;20041;-55
2021/11/05 04:35:02;;;;;;;8.68;7.78;;;;;;;6.02;100.00;96411.00;5001016;28;20038;-54
2021/11/05 04:37:30;;;;;;;8.68;7.68;;;;;;;6.06;100.00;96414.19;4998907;28;20452;-55
2021/11/05 04:39:59;;;;;;;9.00;7.82;;;;;;;6.12;100.00;96408.47;5005081;28;20062;-55
2021/11/05 04:42:27;;;;;;;9.20;8.02;;;;;;;6.25;100.00;96414.44;5009665;28;20081;-53
2021/11/05 04:44:56;;;;;;;10.05;7.78;;;;;;;6.13;100.00;96421.47;5006046;28;20093;-53
2021/11/05 04:47:24;;;;;;;11.20;7.70;;;;;;;6.13;100.00;96425.88;4999915;28;20081;-57
2021/11/05 04:49:53;;;;;;;9.52;7.65;;;;;;;6.13;100.00;96428.50;5002929;28;20516;-56
2021/11/05 04:52:23;;;;;;;8.18;7.38;;;;;;;6.10;100.00;96432.16;5002377;28;20073;-56
2021/11/05 04:54:51;;;;;;;9.82;8.10;;;;;;;6.08;100.00;96428.81;5006285;28;20495;-56
2021/11/05 04:57:20;;;;;;;10.75;7.57;;;;;;;5.93;100.00;96433.44;5007786;28;20085;-55
2021/11/05 04:59:49;;;;;;;8.57;7.68;;;;;;;5.61;100.00;96432.38;5002006;28;20085;-57
2021/11/05 05:02:18;;;;;;;7.95;7.13;;;;;;;5.50;100.00;96432.34;5001089;28;20567;-57
2021/11/05 05:04:47;;;;;;;7.50;6.73;;;;;;;5.46;100.00;96431.75;5003217;28;20073;-57
2021/11/05 05:07:15;;;;;;;8.93;7.68;;;;;;;5.57;100.00;96433.56;5003552;28;20068;-54
2021/11/05 05:09:45;;;;;;;8.43;7.53;;;;;;;5.50;100.00;96440.19;5004820;28;20096;-57
2021/11/05 05:12:14;;;;;;;8.57;7.68;;;;;;;5.40;100.00;96435.66;5007120;28;20081;-55
2021/11/05 05:14:42;;;;;;;11.05;7.28;;;;;;;5.44;100.00;96444.13;4999651;28;20062;-57
2021/11/05 05:17:11;;;;;;;8.68;7.45;;;;;;;5.38;100.00;96445.41;4998051;28;21685;-56
2021/11/05 05:19:39;;;;;;;8.10;7.28;;;;;;;5.46;100.00;96450.88;5005045;28;20076;-56
2021/11/05 05:22:08;;;;;;;8.57;7.65;;;;;;;5.13;100.00;96448.97;5003551;28;20470;-56
2021/11/05 05:24:37;;;;;;;9.00;7.60;;;;;;;5.49;100.00;96455.06;5005320;28;20567;-59
2021/11/05 05:27:08;;;;;;;8.25;6.85;;;;;;;5.48;100.00;96453.41;5004928;28;20073;-60
2021/11/05 05:29:36;;;;;;;7.60;6.90;;;;;;;5.27;100.00;96461.03;5002439;28;20080;-59
2021/11/05 05:32:05;;;;;;;7.50;6.80;;;;;;;5.43;100.00;96461.56;5002577;28;20077;-58
2021/11/05 05:34:34;;;;;;;7.90;7.07;;;;;;;5.37;100.00;96464.66;5003311;28;20065;-56
2021/11/05 05:37:02;;;;;;;10.57;7.30;;;;;;;5.40;100.00;96463.56;5005662;28;20715;-55
2021/11/05 05:39:31;;;;;;;7.75;6.95;;;;;;;5.56;100.00;96473.75;5005478;28;20088;-56
2021/11/05 05:41:59;;;;;;;8.10;6.80;;;;;;;5.75;100.00;96471.44;5003270;28;20088;-58
2021/11/05 05:44:29;;;;;;;8.57;7.00;;;;;;;5.80;100.00;96482.41;5001968;28;20453;-56
2021/11/05 05:46:59;;;;;;;7.90;7.10;;;;;;;5.91;100.00;96486.81;5002600;28;20079;-55
2021/11/05 05:49:27;;;;;;;7.57;6.85;;;;;;;5.72;100.00;96490.00;5001003;28;20081;-56
2021/11/05 05:51:56;;;;;;;7.63;6.90;;;;;;;5.43;100.00;96495.56;5014989;28;21481;-54
2021/11/05 05:54:25;;;;;;;8.23;6.53;;;;;;;5.34;100.00;96503.28;5003893;28;20085;-57
2021/11/05 05:56:53;;;;;;;7.90;6.50;;;;;;;5.17;100.00;96514.94;5004544;28;20111;-57
2021/11/05 05:59:22;;;;;;;7.60;6.28;;;;;;;5.28;100.00;96511.56;5007317;28;20069;-59
2021/11/05 06:01:51;;;;;;;7.03;6.32;;;;;;;5.00;100.00;96513.53;5006893;28;20076;-59
2021/11/05 06:04:21;;;;;;;7.85;6.68;;;;;;;5.33;100.00;96510.25;5006570;28;20070;-57
2021/11/05 06:06:50;;;;;;;10.82;7.05;;;;;;;5.00;100.00;96514.34;5008066;28;20116;-59
2021/11/05 06:09:19;;;;;;;9.98;6.57;;;;;;;4.99;100.00;96524.94;5009881;28;20077;-58
2021/11/05 06:11:47;;;;;;;9.40;6.70;;;;;;;5.17;100.00;96528.00;5006703;28;20061;-55
2021/11/05 06:14:16;;;;;;;8.63;6.47;;;;;;;4.88;100.00;96532.66;5003804;28;20066;-57
2021/11/05 06:16:44;;;;;;;8.98;6.68;;;;;;;5.32;100.00;96526.06;5006192;28;20074;-57
2021/11/05 06:19:15;;;;;;;8.20;6.47;;;;;;;5.27;100.00;96536.88;5006252;28;20527;-53
2021/11/05 06:21:44;;;;;;;9.57;6.90;;;;;;;5.36;100.00;96541.41;5002458;28;20082;-54
2021/11/05 06:24:12;;;;;;;9.30;6.78;;;;;;;5.19;100.00;96550.47;5006472;28;20088;-51
2021/11/05 06:26:41;;;;;;;8.82;6.53;;;;;;;5.14;100.00;96552.59;5002315;28;20080;-57
2021/11/05 06:29:09;;;;;;;7.57;6.22;;;;;;;5.07;100.00;96566.19;5005158;28;20077;-58
2021/11/05 06:31:38;;;;;;;8.23;6.13;;;;;;;5.38;100.00;96562.25;4994915;28;20540;-58
2021/11/05 06:34:06;;;;;;;7.20;5.80;;;;;;;5.32;100.00;96557.44;4982701;28;20066;-59
2021/11/05 06:36:36;;;;;;;7.20;5.82;;;;;;;5.30;100.00;96560.19;5004805;28;20081;-54
2021/11/05 06:39:06;;;;;;;6.60;5.90;;;;;;;5.24;100.00;96564.06;5003240;28;23306;-56
2021/11/05 06:41:34;;;;;;;7.88;6.07;;;;;;;5.38;100.00;96567.47;5001485;28;20073;-53
2021/11/05 06:44:03;;;;;;;7.43;5.80;;;;;;;5.48;100.00;96576.31;4993062;28;20529;-56
2021/11/05 06:46:32;;;;;;;11.73;6.50;;;;;;;5.45;100.00;96582.59;4993849;28;20069;-59
2021/11/05 06:49:00;;;;;;;7.57;6.00;;;;;;;5.59;100.00;96580.78;4995791;28;20429;-57
2021/11/05 06:51:29;;;;;;;7.22;5.78;;;;;;;5.76;100.00;96582.19;4983399;28;20069;-62
2021/11/05 06:53:59;;;;;;;6.32;5.53;;;;;;;5.71;100.00;96585.97;4979554;28;20547;-57
2021/11/05 06:56:27;;;;;;;8.40;5.65;;;;;;;5.64;100.00;96594.34;4988562;28;20066;-57
2021/11/05 06:58:57;;;;;;;6.97;5.30;;;;;;;5.66;100.00;96593.28;4992613;28;20069;-56
2021/11/05 07:01:25;;;;;;;6.63;5.55;;;;;;;6.06;100.00;96600.91;5001090;28;20061;-53
2021/11/05 07:03:54;;;;;;;6.20;5.60;;;;;;;6.15;100.00;96605.44;5002801;28;20097;-54
2021/11/05 07:06:23;;;;;;;6.55;5.95;;;;;;;6.15;100.00;96609.84;5004400;28;20082;-56
2021/11/05 07:08:51;;;;;;;6.28;5.68;;;;;;;6.09;100.00;96611.16;5007963;28;20069;-57
2021/11/05 07:11:21;;;;;;;6.00;5.40;;;;;;;6.09;100.00;96620.75;5007688;28;20061;-58
2021/11/05 07:13:50;;;;;;;6.40;5.80;;;;;;;6.38;100.00;96616.00;4991192;28;20544;-57
2021/11/05 07:16:18;;;;;;;7.10;5.68;;;;;;;6.52;100.00;96622.81;4983041;28;20081;-58
2021/11/05 07:18:47;;;;;;;6.25;5.70;;;;;;;6.46;100.00;96623.28;4989838;28;20097;-56
2021/11/05 07:21:15;;;;;;;6.90;5.68;;;;;;;6.46;100.00;96624.09;5001678;28;20477;-60
2021/11/05 07:23:44;;;;;;;87.07;43.55;;;;;;;6.55;100.00;96625.22;4986004;28;20078;-59
2021/11/05 07:26:12;;;;;;;46.63;25.88;;;;;;;6.63;100.00;96630.69;4980825;28;20058;-56
2021/11/05 07:28:43;;;;;;;8.68;5.85;;;;;;;6.44;100.00;96633.03;4997370;28;20057;-56
2021/11/05 07:31:12;;;;;;;9.43;8.52;;;;;;;6.93;100.00;96631.94;5004882;28;20065;-58
2021/11/05 07:33:40;;;;;;;7.32;6.72;;;;;;;6.82;100.00;96641.47;4997752;28;20093;-59
2021/11/05 07:36:09;;;;;;;5.70;5.10;;;;;;;6.92;100.00;96649.47;5005353;28;20102;-56
2021/11/05 07:38:38;;;;;;;6.72;6.03;;;;;;;6.79;100.00;96652.16;4988450;28;20474;-57
2021/11/05 07:41:09;;;;;;;7.00;6.30;;;;;;;6.85;100.00;96664.81;4987844;28;20039;-59
2021/11/05 07:43:38;;;;;;;8.43;7.20;;;;;;;7.18;100.00;96668.41;4978107;28;20537;-58
2021/11/05 07:46:08;;;;;;;7.53;6.82;;;;;;;7.16;100.00;96672.09;4978992;28;20070;-59
2021/11/05 07:48:36;;;;;;;7.22;6.53;;;;;;;7.33;100.00;96674.28;4979375;28;20462;-61
2021/11/05 07:51:05;;;;;;;7.13;6.28;;;;;;;7.49;100.00;96682.59;5003656;28;20085;-58
2021/11/05 07:53:34;;;;;;;7.18;6.47;;;;;;;7.77;100.00;96678.63;4995814;28;20156;-55
2021/11/05 07:56:02;;;;;;;12.02;6.70;;;;;;;7.77;100.00;96675.19;5005461;28;20065;-55
2021/11/05 07:58:36;;;;;;;8.45;6.35;;;;;;;8.00;100.00;96686.47;4990732;28;20132;-56
2021/11/05 08:01:05;;;;;;;8.85;6.75;;;;;;;8.30;100.00;96689.25;5001383;28;20468;-56
2021/11/05 08:03:35;;;;;;;7.32;6.43;;;;;;;8.42;100.00;96691.88;4989676;28;20457;-59
2021/11/05 08:06:04;;;;;;;8.45;7.25;;;;;;;8.18;100.00;96694.66;4986641;28;20069;-59
2021/11/05 08:08:32;;;;;;;7.95;7.15;;;;;;;8.32;100.00;96702.25;5018714;28;20569;-60
2021/11/05 08:11:02;;;;;;;8.63;7.68;;;;;;;8.54;100.00;96699.59;5007275;28;20480;-57
2021/11/05 08:13:30;;;;;;;8.40;7.35;;;;;;;8.82;100.00;96710.47;4994863;28;20074;-60
2021/11/05 08:15:59;;;;;;;10.02;7.78;;;;;;;9.03;100.00;96713.09;4998211;28;20072;-61
2021/11/05 08:18:27;;;;;;;9.50;7.95;;;;;;;9.13;100.00;96713.16;5008001;28;20081;-61
2021/11/05 08:20:57;;;;;;;8.70;7.45;;;;;;;8.90;100.00;96720.34;5000696;28;20588;-58
2021/11/05 08:23:26;;;;;;;8.50;7.13;;;;;;;8.85;100.00;96728.63;5003883;28;20069;-60
2021/11/05 08:25:54;;;;;;;8.98;7.57;;;;;;;8.47;100.00;96727.34;5005731;28;20077;-59
2021/11/05 08:28:23;;;;;;;9.35;7.47;;;;;;;8.92;100.00;96734.19;5000274;28;20092;-56
2021/11/05 08:30:52;;;;;;;8.40;7.40;;;;;;;9.03;100.00;96748.13;5000332;28;20522;-57
2021/11/05 08:33:21;;;;;;;8.52;7.57;;;;;;;9.04;100.00;96754.22;5009195;28;20080;-60
2021/11/05 08:35:51;;;;;;;9.95;7.07;;;;;;;9.59;100.00;96762.72;5000611;28;20065;-59
2021/11/05 08:38:25;;;;;;;8.88;7.47;;;;;;;9.12;100.00;96762.31;5008469;28;20072;-57
2021/11/05 08:40:55;;;;;;;10.80;7.80;;;;;;;9.52;100.00;96764.19;5005342;28;20440;-56
2021/11/05 08:43:30;;;;;;;9.38;7.45;;;;;;;9.62;100.00;96772.97;4999975;28;20062;-58
2021/11/05 08:45:59;;;;;;;9.98;8.15;;;;;;;9.38;100.00;96768.00;5003117;28;20152;-63
2021/11/05 08:48:29;;;;;;;9.45;7.95;;;;;;;9.49;100.00;96774.97;5009227;28;20078;-60
2021/11/05 08:50:58;;;;;;;10.15;8.00;;;;;;;9.30;100.00;96772.25;5003338;28;20534;-60
2021/11/05 08:53:28;;;;;;;10.20;7.47;;;;;;;9.49;100.00;96774.97;5005718;28;20095;-61
2021/11/05 08:55:56;;;;;;;10.80;8.10;;;;;;;9.41;100.00;96786.16;4988721;28;20072;-62
2021/11/05 08:58:25;;;;;;;9.52;7.53;;;;;;;9.78;100.00;96790.13;5005459;28;20042;-63
2021/11/05 09:00:53;;;;;;;8.93;7.72;;;;;;;9.52;100.00;96790.53;4995655;28;20093;-57
2021/11/05 09:03:22;;;;;;;8.75;7.60;;;;;;;9.48;100.00;96794.38;5002782;28;20085;-61
2021/11/05 09:05:50;;;;;;;10.15;8.18;;;;;;;10.07;100.00;96787.59;5000268;28;20072;-59
2021/11/05 09:08:19;;;;;;;8.40;7.50;;;;;;;9.90;100.00;96796.94;5006463;28;20457;-59
2021/11/05 09:10:49;;;;;;;9.88;7.95;;;;;;;9.94;100.00;96800.97;5006288;28;20068;-57
2021/11/05 09:13:17;;;;;;;10.05;8.38;;;;;;;10.43;100.00;96796.75;4997394;28;20073;-62
2021/11/05 09:15:46;;;;;;;9.27;7.15;;;;;;;10.13;100.00;96805.50;4995985;28;20093;-60
2021/11/05 09:18:14;;;;;;;9.88;8.50;;;;;;;10.13;100.00;96803.72;5008851;28;20515;-59
2021/11/05 09:20:43;;;;;;;8.70;7.80;;;;;;;10.07;100.00;96817.41;4999805;28;20508;-59
2021/11/05 09:23:12;;;;;;;8.88;7.72;;;;;;;10.12;100.00;96817.03;5006423;28;20030;-59
2021/11/05 09:25:40;;;;;;;10.40;7.97;;;;;;;10.36;100.00;96814.09;5008143;28;20077;-59
2021/11/05 09:28:10;;;;;;;9.57;7.57;;;;;;;10.09;100.00;96817.28;5003431;28;20066;-60
2021/11/05 09:30:39;;;;;;;8.65;7.22;;;;;;;9.69;100.00;96832.06;5009090;28;20077;-60
2021/11/05 09:33:07;;;;;;;9.18;7.18;;;;;;;9.96;100.00;96828.03;5005214;28;20081;-56
2021/11/05 09:35:37;;;;;;;10.40;7.20;;;;;;;9.89;100.00;96829.53;5012550;28;20076;-59
2021/11/05 09:38:05;;;;;;;8.77;7.65;;;;;;;10.49;100.00;96827.84;5007568;28;20065;-56
2021/11/05 09:40:35;;;;;;;9.15;7.65;;;;;;;10.51;100.00;96825.91;4997315;28;20066;-59
2021/11/05 09:43:03;;;;;;;7.88;7.07;;;;;;;10.79;100.00;96836.66;4998258;28;20068;-58
2021/11/05 09:45:33;;;;;;;8.93;7.43;;;;;;;11.36;100.00;96830.56;5005900;28;20081;-59
2021/11/05 09:48:03;;;;;;;8.05;6.55;;;;;;;11.06;100.00;96834.19;5009093;28;21677;-61
2021/11/05 09:50:32;;;;;;;6.80;6.10;;;;;;;10.85;100.00;96830.84;5009916;28;20116;-59
2021/11/05 09:53:00;;;;;;;7.15;6.13;;;;;;;10.60;100.00;96840.94;4997777;28;20061;-60
2021/11/05 09:55:30;;;;;;;7.00;6.25;;;;;;;10.84;100.00;96829.16;4993052;28;20077;-58
2021/11/05 09:57:59;;;;;;;6.85;6.10;;;;;;;10.54;100.00;96833.56;5006075;28;20065;-58
2021/11/05 10:00:28;;;;;;;6.57;5.88;;;;;;;10.51;100.00;96844.38;5012151;28;20081;-58
2021/11/05 10:02:58;;;;;;;7.13;6.43;;;;;;;10.44;100.00;96841.44;4996413;28;20062;-61
2021/11/05 10:05:27;;;;;;;7.55;6.35;;;;;;;10.43;100.00;96846.84;5000941;28;20118;-60
2021/11/05 10:07:59;;;;;;;7.32;6.03;;;;;;;10.29;100.00;96845.44;5002188;28;20061;-58
2021/11/05 10:10:29;;;;;;;7.22;6.25;;;;;;;10.29;100.00;96849.84;5007192;28;20069;-60
2021/11/05 10:13:02;;;;;;;7.03;6.32;;;;;;;10.39;100.00;96851.56;5005627;28;20058;-58
2021/11/05 10:15:38;;;;;;;6.63;5.55;;;;;;;10.05;100.00;96852.75;5009235;28;20548;-60
2021/11/05 10:18:14;;;;;;;5.82;4.93;;;;;;;10.10;100.00;96847.94;5023121;28;20512;-58
2021/11/05 10:20:43;;;;;;;8.27;5.82;;;;;;;10.74;100.00;96846.81;5002230;28;20489;-59
2021/11/05 10:23:13;;;;;;;6.63;5.70;;;;;;;10.91;100.00;96843.50;5021523;28;20068;-57
2021/11/05 10:25:44;;;;;;;6.30;5.65;;;;;;;11.22;100.00;96835.41;5008017;28;20065;-60
2021/11/05 10:28:16;;;;;;;7.13;6.22;;;;;;;11.34;100.00;96843.06;5002777;28;20058;-59
2021/11/05 10:30:59;;;;;;;8.38;6.15;;;;;;;10.86;100.00;96846.53;5012824;28;20452;-58
2021/11/05 10:33:32;;;;;;;8.02;6.30;;;;;;;11.47;100.00;96840.16;4998030;28;20084;-58
2021/11/05 10:36:04;;;;;;;8.40;5.75;;;;;;;10.82;100.00;96839.84;5006534;28;20065;-58
2021/11/05 10:38:35;;;;;;;7.63;5.60;;;;;;;10.75;100.00;96848.47;4989423;28;20061;-60
2021/11/05 10:41:06;;;;;;;6.53;5.68;;;;;;;10.78;100.00;96841.09;4985248;28;20063;-55
2021/11/05 10:43:40;;;;;;;6.65;5.43;;;;;;;11.27;100.00;96839.31;4992172;28;20594;-57
2021/11/05 10:46:11;;;;;;;5.72;5.13;;;;;;;11.16;100.00;96842.09;5008781;28;20072;-58
2021/11/05 10:48:41;;;;;;;5.95;4.80;;;;;;;10.97;100.00;96850.00;5001783;28;20085;-56
2021/11/05 10:51:10;;;;;;;5.80;5.20;;;;;;;11.39;100.00;96842.66;5011110;28;20441;-58
2021/11/05 10:53:40;;;;;;;6.53;5.53;;;;;;;11.72;100.00;96846.63;5013559;28;20088;-59
2021/11/05 10:56:11;;;;;;;6.70;5.72;;;;;;;11.23;100.00;96848.50;5008271;28;20161;-61
2021/11/05 10:58:40;;;;;;;;;;;;;;;11.13;100.00;96843.22;5003830;28;20065;-58
2021/11/05 11:01:12;;;;;;;4.10;3.70;;;;;;;10.72;100.00;96857.47;5003590;28;19953;-57
2021/11/05 11:03:46;;;;;;;3.08;2.78;;;;;;;10.50;100.00;96855.91;5005185;28;20072;-57
2021/11/05 11:06:17;;;;;;;3.15;2.85;;;;;;;10.37;100.00;96860.56;5003209;28;20069;-59
2021/11/05 11:08:48;;;;;;;3.90;3.50;;;;;;;10.82;100.00;96862.78;4985059;28;20069;-56
2021/11/05 11:11:20;;;;;;;;;;;;;;;10.88;100.00;96857.78;5003011;28;20535;-56
2021/11/05 11:13:50;;;;;;;4.03;3.63;;;;;;;10.71;100.00;96860.25;5011099;28;20387;-56
2021/11/05 11:16:22;;;;;;;3.90;3.50;;;;;;;10.76;100.00;96861.50;5006702;28;20066;-55
2021/11/05 11:18:58;;;;;;;4.32;3.92;;;;;;;10.78;100.00;96866.66;5004896;28;20081;-59
2021/11/05 11:21:29;;;;;;;6.95;3.88;;;;;;;10.95;100.00;96863.34;4997047;28;20097;-56
2021/11/05 11:23:58;;;;;;;6.70;3.75;;;;;;;10.65;100.00;96864.25;5007683;28;20053;-59
2021/11/05 11:26:27;;;;;;;4.80;3.85;;;;;;;10.66;100.00;96869.38;4998131;28;20073;-62
2021/11/05 11:28:57;;;;;;;5.60;3.83;;;;;;;11.27;100.00;96859.63;4994195;28;20078;-58
2021/11/05 11:31:25;;;;;;;4.25;3.85;;;;;;;10.71;100.00;96866.34;4988750;28;20065;-58
2021/11/05 11:34:01;;;;;;;4.50;4.10;;;;;;;10.76;100.00;96861.50;4992482;28;20078;-54
2021/11/05 11:36:31;;;;;;;4.53;4.13;;;;;;;11.25;100.00;96857.13;5003471;28;20073;-60
2021/11/05 11:39:01;;;;;;;4.38;3.97;;;;;;;10.96;100.00;96859.72;5000941;28;20061;-53
2021/11/05 11:41:33;;;;;;;4.85;4.35;;;;;;;10.84;100.00;96872.22;4998673;28;20455;-57